Philip, SD

7:51 PM MDT on August 20, 2014 (GMT -0600)
Rapid City | Change Station
CLOSE
Current Station
Airport
Location: Rapid City,
Elevation: 3166 ft
Nearby Weather Stations

Elev 3166 ft 44.05 °N, 103.06 °W | Updated 59 minutes ago

Clear
Clear
80 °F
Feels Like 80 °F
N
14
Wind Variable Wind from North

Today
High -- | Low -- °F
--% Chance of Precip.
Yesterday
High -- | Low -- °F
Precip. -- in
5:56 AM 7:42 PM
Waning Crescent, 17% visible
Pressure 29.68 in
Visibility 10.0 miles
Clouds Clear
Heat Index 80 °F
Dew Point 56 °F
Humidity 43%
Rainfall 0.00 in
Snow Depth Not available.
UV 0 out of 12
Pollen 9.30 out of 12
Air Quality Not available.
Flu Activity Not available.
METAR KRAP 210052Z AUTO 36012KT 10SM CLR 27/13 A2976 RMK AO2 SLP049 T02670133

More Conditions Fewer Conditions

Pressure 29.68 in
Visibility 10.0 miles
Clouds Clear
Heat Index 80 °F
Dew Point 56 °F
Humidity 43%
Rainfall 0.00 in
Snow Depth Not available.
UV 0 out of 12
Pollen 9.30 out of 12
Air Quality Not available.
Flu Activity Not available.
METAR KRAP 210052Z AUTO 36012KT 10SM CLR 27/13 A2976 RMK AO2 SLP049 T02670133

More Conditions Fewer Conditions

10-Day Weather Forecast

Almanac

Astronomy

Aug. 20, 2014 Rise Set
Actual Time 5:56 AM MDT 7:42 PM MDT
Civil Twilight 5:25 AM MDT 8:13 PM MDT
Nautical Twilight 4:47 AM MDT 8:51 PM MDT
Astronomical Twilight 4:07 AM MDT 9:31 PM MDT
Moon 1:33 AM MDT (8/20) 4:33 PM MDT (8/20)
Length of Visible Light 14h 48m
Length of Day
13h 46m
Tomorrow will be 2m 48s shorter.
Waning Crescent, 17% of the Moon is Illuminated
Today
Waning Crescent
Aug 25
New
Sep 2
First Quarter
Sep 8
Full
Sep 15
Last Quarter

Today's Extremes

State Highs State Lows

Community

WunderPhotos

Upload Photos

1,745,859 photos uploaded!

WunderBlogs® & News

Nearby

Snow Depth

Station Depth Elevation
Blind Park 0 in 6890 ft

Earthquake Activity

City Distance Mag. Time & Date
No recent earthquake activity has been reported nearby.
Minimum magnitude displayed is 2.5.

Coastal Water Temperatures

Place Temperature
No Stations Reporting

Nearby Weather Stations